createdAt,value
2019-06-01T01:55:25.363Z,0.00
2019-06-01T01:56:25.328Z,0.00
2019-06-01T01:58:18.500Z,0.00
2019-06-01T01:59:18.039Z,0.00
2019-06-01T02:01:22.197Z,0.00
2019-06-01T02:02:10.748Z,0.00
2019-06-01T02:04:03.546Z,0.00
2019-06-01T02:05:03.466Z,0.00
2019-06-01T02:06:56.226Z,0.00
2019-06-01T02:07:56.987Z,0.00
2019-06-01T02:09:49.139Z,0.00
2019-06-01T02:10:48.956Z,0.00
2019-06-01T02:12:41.899Z,4.00
2019-06-01T02:13:41.671Z,4.00
2019-06-01T02:15:34.484Z,0.00
2019-06-01T02:16:34.624Z,4.00
2019-06-01T02:18:27.449Z,4.00
2019-06-01T02:19:27.251Z,4.00
2019-06-01T02:21:20.146Z,4.00
2019-06-01T02:22:20.056Z,4.00
2019-06-01T02:24:12.960Z,4.00
2019-06-01T02:25:12.851Z,4.00
2019-06-01T02:27:05.648Z,8.00
2019-06-01T02:28:05.727Z,8.00
2019-06-01T02:29:59.383Z,8.00
2019-06-01T02:30:59.744Z,12.00
2019-06-01T02:32:51.160Z,16.00
2019-06-01T02:33:50.973Z,16.00
2019-06-01T02:35:44.074Z,24.00
2019-06-01T02:36:43.697Z,28.00
2019-06-01T02:38:36.561Z,32.00
2019-06-01T02:39:36.485Z,32.00
2019-06-01T02:41:29.300Z,40.00
2019-06-01T02:42:29.234Z,44.00
2019-06-01T02:44:22.040Z,48.00
2019-06-01T02:45:21.957Z,56.00
2019-06-01T02:47:14.780Z,64.00
2019-06-01T02:48:14.698Z,68.00
2019-06-01T02:50:07.471Z,72.00
2019-06-01T02:51:07.426Z,80.00
2019-06-01T02:53:01.441Z,92.00
2019-06-01T02:54:01.625Z,96.00
2019-06-01T02:55:53.256Z,108.00
2019-06-01T02:56:53.069Z,116.00
2019-06-01T02:58:46.011Z,128.00
2019-06-01T02:59:45.875Z,136.00
2019-06-01T03:01:38.655Z,152.00
2019-06-01T03:02:38.576Z,160.00
2019-06-01T03:04:31.375Z,184.00
2019-06-01T03:05:31.285Z,192.00
2019-06-01T03:07:24.092Z,212.00
2019-06-01T03:08:24.034Z,220.00
2019-06-01T03:10:16.848Z,244.00
2019-06-01T03:11:16.749Z,256.00
2019-06-01T03:13:09.820Z,280.00
2019-06-01T03:14:09.475Z,296.00
2019-06-01T03:16:03.458Z,324.00
2019-06-01T03:17:03.684Z,336.00
2019-06-01T03:18:55.056Z,368.00
2019-06-01T03:19:55.029Z,388.00
2019-06-01T03:21:47.802Z,416.00
2019-06-01T03:22:47.733Z,436.00
2019-06-01T03:24:40.570Z,472.00
2019-06-01T03:25:40.461Z,492.00
2019-06-01T03:27:33.296Z,524.00
2019-06-01T03:28:33.204Z,540.00
2019-06-01T03:30:25.964Z,572.00
2019-06-01T03:31:25.891Z,584.00
2019-06-01T03:33:18.759Z,612.00
2019-06-01T03:34:18.644Z,632.00
2019-06-01T03:36:11.453Z,672.00
2019-06-01T03:39:04.082Z,736.00
2019-06-01T03:40:06.838Z,756.00
2019-06-01T03:41:56.857Z,800.00
2019-06-01T03:42:56.732Z,820.00
2019-06-01T03:44:49.652Z,856.00
2019-06-01T03:45:49.533Z,872.00
2019-06-01T03:47:42.292Z,920.00
2019-06-01T03:48:42.276Z,956.00
2019-06-01T03:50:35.028Z,1024.00
2019-06-01T03:51:34.938Z,1068.00
2019-06-01T03:53:27.837Z,1132.00
2019-06-01T03:54:27.830Z,1184.00
2019-06-01T03:56:20.577Z,1268.00
2019-06-01T03:57:20.489Z,1292.00
2019-06-01T03:59:13.403Z,1332.00
2019-06-01T04:00:13.215Z,1340.00
2019-06-01T04:02:07.004Z,1388.00
2019-06-01T04:03:07.054Z,1412.00
2019-06-01T04:04:58.778Z,1424.00
2019-06-01T04:05:58.655Z,1472.00
2019-06-01T04:07:51.517Z,1512.00
2019-06-01T04:08:51.474Z,1540.00
2019-06-01T04:10:44.583Z,1612.00
2019-06-01T04:11:44.405Z,1640.00
2019-06-01T04:13:37.383Z,1684.00
2019-06-01T04:14:37.151Z,1692.00
2019-06-01T04:16:29.937Z,1688.00
2019-06-01T04:17:32.792Z,1708.00
2019-06-01T04:19:22.668Z,1760.00
2019-06-01T04:20:22.698Z,1780.00
2019-06-01T04:22:15.378Z,1844.00
2019-06-01T04:23:15.326Z,1896.00
2019-06-01T04:25:08.365Z,2004.00
2019-06-01T04:26:08.167Z,2060.00
2019-06-01T04:28:01.977Z,2168.00
2019-06-01T04:29:02.179Z,2236.00
2019-06-01T04:30:53.568Z,2312.00
2019-06-01T04:31:53.496Z,2344.00
2019-06-01T04:33:46.250Z,2504.00
2019-06-01T04:34:46.244Z,2580.00
2019-06-01T04:36:38.991Z,2692.00
2019-06-01T04:37:39.003Z,2780.00
2019-06-01T04:39:31.712Z,2932.00
2019-06-01T04:40:31.633Z,2992.00
2019-06-01T04:42:24.430Z,3200.00
2019-06-01T04:43:24.367Z,3412.00
2019-06-01T04:45:17.171Z,4212.00
2019-06-01T04:46:17.115Z,4932.00
2019-06-01T04:48:10.614Z,6796.00
2019-06-01T04:49:10.690Z,8384.00
2019-06-01T04:51:02.597Z,10292.00
2019-06-01T04:52:02.550Z,10768.00
2019-06-01T04:53:55.431Z,11352.00
2019-06-01T04:54:55.490Z,11548.00
2019-06-01T04:56:48.080Z,11976.00
2019-06-01T04:57:48.006Z,12208.00
2019-06-01T04:59:40.898Z,12268.00
2019-06-01T05:00:40.842Z,12056.00
2019-06-01T05:02:33.623Z,10288.00
2019-06-01T05:03:33.537Z,12976.00
2019-06-01T05:05:26.363Z,13600.00
2019-06-01T05:06:26.283Z,13952.00
2019-06-01T05:08:19.107Z,12924.00
2019-06-01T05:09:19.029Z,13340.00
2019-06-01T05:11:11.960Z,13824.00
2019-06-01T05:12:11.783Z,13632.00
2019-06-01T05:14:05.426Z,12004.00
2019-06-01T05:15:05.490Z,12668.00
2019-06-01T05:16:57.406Z,13536.00
2019-06-01T05:17:57.278Z,12404.00
2019-06-01T05:19:50.299Z,8796.00
2019-06-01T05:20:50.125Z,5468.00
2019-06-01T05:22:43.120Z,5324.00
2019-06-01T05:23:42.814Z,5596.00
2019-06-01T05:25:35.634Z,8148.00
2019-06-01T05:26:35.517Z,7424.00
2019-06-01T05:28:28.315Z,8296.00
2019-06-01T05:29:28.255Z,8236.00
2019-06-01T05:31:25.077Z,5636.00
2019-06-01T05:32:20.980Z,5308.00
2019-06-01T05:34:13.894Z,4364.00
2019-06-01T05:35:13.797Z,4964.00
2019-06-01T05:37:06.533Z,3988.00
2019-06-01T05:38:06.445Z,3832.00
2019-06-01T05:39:59.413Z,3408.00
2019-06-01T05:40:59.185Z,3380.00
2019-06-01T05:42:52.196Z,3224.00
2019-06-01T05:43:51.904Z,3468.00
2019-06-01T05:45:44.813Z,3316.00
2019-06-01T05:46:44.782Z,3216.00
2019-06-01T05:48:37.538Z,3252.00
2019-06-01T05:49:37.360Z,3292.00
2019-06-01T05:51:30.172Z,3352.00
2019-06-01T05:52:30.100Z,3444.00
2019-06-01T05:54:23.020Z,5216.00
2019-06-01T05:55:23.143Z,3552.00
2019-06-01T05:57:16.727Z,3252.00
2019-06-01T05:58:15.559Z,3220.00
2019-06-01T06:00:08.357Z,3164.00
2019-06-01T06:01:08.307Z,3216.00
2019-06-01T06:03:01.183Z,3300.00
2019-06-01T06:04:01.011Z,3360.00
2019-06-01T06:05:53.821Z,3208.00
2019-06-01T06:06:53.749Z,3248.00
2019-06-01T06:08:46.518Z,3544.00
2019-06-01T06:09:46.463Z,3864.00
2019-06-01T06:11:39.280Z,4008.00
2019-06-01T06:12:39.210Z,3852.00
2019-06-01T06:14:31.994Z,3524.00
2019-06-01T06:15:32.046Z,3228.00
2019-06-01T06:17:24.848Z,3180.00
2019-06-01T06:18:24.663Z,3568.00
2019-06-01T06:20:18.033Z,3616.00
2019-06-01T06:21:18.512Z,3756.00
2019-06-01T06:23:10.208Z,4300.00
2019-06-01T06:24:10.146Z,3248.00
2019-06-01T06:26:02.924Z,4404.00
2019-06-01T06:27:02.883Z,12956.00
2019-06-01T06:28:55.636Z,8780.00
2019-06-01T06:29:55.582Z,21696.00
2019-06-01T06:31:48.378Z,8572.00
2019-06-01T06:32:48.306Z,9412.00
2019-06-01T06:34:41.083Z,21024.00
2019-06-01T06:35:41.035Z,10384.00
2019-06-01T06:37:33.824Z,11224.00
2019-06-01T06:38:33.774Z,21472.00
2019-06-01T06:40:26.528Z,20192.00
2019-06-01T06:41:26.529Z,17536.00
2019-06-01T06:43:24.746Z,22848.00
2019-06-01T06:44:19.201Z,23680.00
2019-06-01T06:46:12.025Z,22592.00
2019-06-01T06:47:11.920Z,19456.00
2019-06-01T06:49:04.720Z,22656.00
2019-06-01T06:50:04.635Z,10732.00
2019-06-01T06:51:57.455Z,23968.00
2019-06-01T06:52:57.597Z,25120.00
2019-06-01T06:54:50.175Z,25216.00
2019-06-01T06:55:50.108Z,25888.00
2019-06-01T06:57:42.906Z,26496.00
2019-06-01T06:58:42.848Z,24640.00
2019-06-01T07:00:35.619Z,22400.00
2019-06-01T07:01:35.573Z,23744.00
2019-06-01T07:03:28.426Z,25632.00
2019-06-01T07:04:28.369Z,25888.00
2019-06-01T07:06:21.483Z,25312.00
2019-06-01T07:07:21.711Z,27136.00
2019-06-01T07:09:13.978Z,27712.00
2019-06-01T07:10:13.878Z,27360.00
2019-06-01T07:12:06.685Z,28320.00
2019-06-01T07:13:06.617Z,28512.00
2019-06-01T07:14:59.418Z,27488.00
2019-06-01T07:15:59.352Z,24928.00
2019-06-01T07:17:52.195Z,24832.00
2019-06-01T07:18:52.101Z,24448.00
2019-06-01T07:20:44.927Z,26720.00
2019-06-01T07:21:44.910Z,26784.00
2019-06-01T07:23:38.749Z,26688.00
2019-06-01T07:24:38.046Z,27264.00
2019-06-01T07:26:30.866Z,27264.00
2019-06-01T07:27:30.798Z,27904.00
2019-06-01T07:29:24.191Z,28224.00
2019-06-01T07:30:24.233Z,28640.00
2019-06-01T07:32:16.347Z,27776.00
2019-06-01T07:33:16.289Z,29568.00
2019-06-01T07:35:09.271Z,28768.00
2019-06-01T07:36:09.188Z,29728.00
2019-06-01T07:38:02.285Z,25568.00
2019-06-01T07:39:02.131Z,25376.00
2019-06-01T07:40:55.274Z,30048.00
2019-06-01T07:41:54.935Z,31168.00
2019-06-01T07:43:49.583Z,30272.00
2019-06-01T07:44:49.451Z,30816.00
2019-06-01T07:46:42.502Z,31104.00
2019-06-01T07:47:42.310Z,26208.00
2019-06-01T07:49:35.153Z,30176.00
2019-06-01T07:50:35.057Z,30976.00
2019-06-01T07:52:28.294Z,30912.00
2019-06-01T07:53:27.816Z,30816.00
2019-06-01T07:55:21.386Z,30016.00
2019-06-01T07:56:20.578Z,30752.00
2019-06-01T07:58:13.447Z,30336.00
2019-06-01T07:59:13.365Z,30592.00
2019-06-01T08:01:06.158Z,30048.00
2019-06-01T08:02:06.125Z,29312.00
2019-06-01T08:03:58.921Z,30208.00
2019-06-01T08:04:58.881Z,30592.00
2019-06-01T08:06:51.715Z,30112.00
2019-06-01T08:07:51.622Z,30240.00
2019-06-01T08:09:44.430Z,31616.00
2019-06-01T08:10:44.701Z,20896.00
2019-06-01T08:12:38.111Z,27808.00
2019-06-01T08:13:37.995Z,28000.00
2019-06-01T08:15:31.871Z,28960.00
2019-06-01T08:16:31.950Z,28416.00
2019-06-01T08:18:23.941Z,27616.00
2019-06-01T08:19:23.872Z,25312.00
2019-06-01T08:21:16.305Z,24480.00
2019-06-01T08:22:16.265Z,25312.00
2019-06-01T08:24:09.111Z,24224.00
2019-06-01T08:25:09.019Z,27552.00
2019-06-01T08:27:01.835Z,25216.00
2019-06-01T08:28:01.785Z,23744.00
2019-06-01T08:29:54.602Z,22368.00
2019-06-01T08:30:54.587Z,23328.00
2019-06-01T08:32:48.954Z,23552.00
2019-06-01T08:33:47.578Z,23456.00
2019-06-01T08:35:40.633Z,21248.00
2019-06-01T08:36:40.351Z,22176.00
2019-06-01T08:38:33.789Z,21536.00
2019-06-01T08:39:34.217Z,22688.00
2019-06-01T08:41:25.940Z,21664.00
2019-06-01T08:42:25.852Z,20064.00
2019-06-01T08:44:18.666Z,21568.00
2019-06-01T08:45:18.596Z,20608.00
2019-06-01T08:47:11.400Z,22304.00
2019-06-01T08:48:11.358Z,24544.00
2019-06-01T08:50:04.487Z,23904.00
2019-06-01T08:51:04.137Z,23712.00
2019-06-01T08:52:56.916Z,15808.00
2019-06-01T08:53:56.862Z,18208.00
2019-06-01T08:55:49.767Z,24000.00
2019-06-01T08:56:49.666Z,26304.00
2019-06-01T08:58:42.539Z,21216.00
2019-06-01T08:59:42.414Z,22976.00
2019-06-01T09:01:35.324Z,25696.00
2019-06-01T09:02:35.287Z,25600.00
2019-06-01T09:04:28.832Z,25376.00
2019-06-01T09:05:29.870Z,26528.00
2019-06-01T09:07:20.825Z,26240.00
2019-06-01T09:08:23.695Z,23872.00
2019-06-01T09:10:13.614Z,25952.00
2019-06-01T09:11:13.519Z,25344.00
2019-06-01T09:13:06.353Z,24480.00
2019-06-01T09:14:06.272Z,23904.00
2019-06-01T09:15:59.226Z,23008.00
2019-06-01T09:16:59.163Z,22560.00
2019-06-01T09:18:51.962Z,18272.00
2019-06-01T09:19:51.907Z,19936.00
2019-06-01T09:21:44.745Z,25408.00
2019-06-01T09:22:47.910Z,25504.00
2019-06-01T09:24:37.536Z,23872.00
2019-06-01T09:25:37.473Z,24128.00
2019-06-01T09:27:30.403Z,23616.00
2019-06-01T09:28:30.221Z,9592.00
2019-06-01T09:30:23.224Z,22912.00
2019-06-01T09:31:23.107Z,20512.00
2019-06-01T09:33:16.010Z,18752.00
2019-06-01T09:34:15.923Z,18624.00
2019-06-01T09:36:08.842Z,20992.00
2019-06-01T09:37:08.789Z,19072.00
2019-06-01T09:39:01.651Z,12600.00
2019-06-01T09:40:01.614Z,13036.00
2019-06-01T09:41:54.465Z,15104.00
2019-06-01T09:42:54.334Z,13632.00
2019-06-01T09:44:47.161Z,8348.00
2019-06-01T09:45:47.084Z,6952.00
2019-06-01T09:47:39.876Z,12448.00
2019-06-01T09:48:40.016Z,7236.00
2019-06-01T09:50:33.449Z,5436.00
2019-06-01T09:51:33.441Z,7404.00
2019-06-01T09:53:25.749Z,17760.00
2019-06-01T09:54:25.690Z,17536.00
2019-06-01T09:56:18.539Z,17120.00
2019-06-01T09:57:18.458Z,17504.00
2019-06-01T09:59:11.418Z,16672.00
2019-06-01T10:00:11.370Z,17248.00
2019-06-01T10:02:04.250Z,16960.00
2019-06-01T10:03:04.198Z,9212.00
2019-06-01T10:04:56.939Z,8120.00
2019-06-01T10:06:01.964Z,6780.00
2019-06-01T10:07:49.689Z,13508.00
2019-06-01T10:08:49.629Z,14912.00
2019-06-01T10:10:42.480Z,14068.00
2019-06-01T10:11:42.490Z,12852.00
2019-06-01T10:13:36.394Z,11944.00
2019-06-01T10:14:36.201Z,6468.00
2019-06-01T10:16:27.942Z,12984.00
2019-06-01T10:17:27.866Z,11904.00
2019-06-01T10:19:20.699Z,12148.00
2019-06-01T10:20:20.664Z,12464.00
2019-06-01T10:22:13.444Z,12516.00
2019-06-01T10:23:13.379Z,11728.00
2019-06-01T10:25:06.191Z,9908.00
2019-06-01T10:26:06.123Z,6784.00
2019-06-01T10:27:58.928Z,5508.00
2019-06-01T10:28:58.895Z,7372.00
2019-06-01T10:30:51.681Z,6732.00
2019-06-01T10:31:51.628Z,6496.00
2019-06-01T10:33:44.433Z,6064.00
2019-06-01T10:34:44.374Z,6180.00
2019-06-01T10:36:38.036Z,5440.00
2019-06-01T10:37:37.685Z,5140.00
2019-06-01T10:39:31.149Z,5108.00
2019-06-01T10:40:31.225Z,4964.00
2019-06-01T10:42:22.841Z,4928.00
2019-06-01T10:43:22.714Z,5000.00
2019-06-01T10:45:15.538Z,4844.00
2019-06-01T10:46:15.579Z,4768.00
2019-06-01T10:48:08.264Z,5040.00
2019-06-01T10:49:08.298Z,5212.00
2019-06-01T10:51:01.037Z,5128.00
2019-06-01T10:52:00.963Z,5684.00
2019-06-01T10:53:53.902Z,4928.00
2019-06-01T10:54:53.827Z,5168.00
2019-06-01T10:56:46.616Z,4916.00
2019-06-01T10:57:46.510Z,4708.00
2019-06-01T10:59:40.467Z,4184.00
2019-06-01T11:00:47.786Z,4012.00
2019-06-01T11:02:32.557Z,3932.00
2019-06-01T11:03:32.542Z,4040.00
2019-06-01T11:05:25.143Z,4136.00
2019-06-01T11:06:36.642Z,4100.00
2019-06-01T11:08:17.921Z,4128.00
2019-06-01T11:09:17.804Z,4328.00
2019-06-01T11:11:10.601Z,4456.00
2019-06-01T11:12:10.529Z,4472.00
2019-06-01T11:14:03.331Z,3860.00
2019-06-01T11:15:03.282Z,4224.00
2019-06-01T11:16:56.975Z,4512.00
2019-06-01T11:17:56.443Z,4300.00
2019-06-01T11:19:49.215Z,4104.00
2019-06-01T11:20:49.096Z,3928.00
2019-06-01T11:22:41.887Z,3920.00
2019-06-01T11:23:45.049Z,4488.00
2019-06-01T11:25:35.633Z,4724.00
2019-06-01T11:26:35.568Z,4256.00
2019-06-01T11:28:27.425Z,3200.00
2019-06-01T11:29:27.348Z,3540.00
2019-06-01T11:31:20.261Z,3880.00
2019-06-01T11:32:20.188Z,4076.00
2019-06-01T11:34:13.866Z,3988.00
2019-06-01T11:35:13.825Z,3688.00
2019-06-01T11:37:06.796Z,2844.00
2019-06-01T11:38:06.517Z,3144.00
2019-06-01T11:39:59.331Z,3800.00
2019-06-01T11:40:59.257Z,3792.00
2019-06-01T11:42:52.047Z,3508.00
2019-06-01T11:43:51.980Z,3544.00
2019-06-01T11:45:45.202Z,3588.00
2019-06-01T11:46:45.116Z,3644.00
2019-06-01T11:48:39.083Z,3396.00
2019-06-01T11:49:38.628Z,3340.00
2019-06-01T11:51:30.285Z,3240.00
2019-06-01T11:52:30.202Z,3240.00
2019-06-01T11:54:23.029Z,3248.00
2019-06-01T11:55:22.936Z,2600.00
2019-06-01T11:57:15.727Z,2568.00
2019-06-01T11:58:15.714Z,3092.00
2019-06-01T12:00:08.494Z,3156.00
2019-06-01T12:01:08.411Z,3068.00
2019-06-01T12:03:02.257Z,2868.00
2019-06-01T12:04:02.183Z,2728.00
2019-06-01T12:05:55.116Z,2644.00
2019-06-01T12:06:55.164Z,2644.00
2019-06-01T12:08:47.891Z,2740.00
2019-06-01T12:09:47.736Z,2660.00
2019-06-01T12:11:40.534Z,2592.00
2019-06-01T12:12:40.503Z,2536.00
2019-06-01T12:14:33.404Z,2408.00
2019-06-01T12:15:33.266Z,2380.00
2019-06-01T12:17:26.109Z,2368.00
2019-06-01T12:18:26.018Z,2360.00
2019-06-01T12:20:18.826Z,2460.00
2019-06-01T12:21:18.773Z,2736.00
2019-06-01T12:23:11.587Z,3068.00
2019-06-01T12:24:11.506Z,3012.00
2019-06-01T12:26:04.300Z,2724.00
2019-06-01T12:27:04.222Z,2612.00
2019-06-01T12:28:57.012Z,2520.00
2019-06-01T12:29:56.956Z,2528.00
2019-06-01T12:31:49.784Z,2484.00
2019-06-01T12:32:49.698Z,2460.00
2019-06-01T12:34:42.470Z,2500.00
2019-06-01T12:35:42.444Z,2456.00
2019-06-01T12:37:54.909Z,2432.00
2019-06-01T12:38:35.133Z,2520.00
2019-06-01T12:40:27.914Z,2532.00
2019-06-01T12:41:27.884Z,2444.00
2019-06-01T12:43:20.659Z,2432.00
2019-06-01T12:44:20.594Z,2464.00
2019-06-01T12:46:13.459Z,2432.00
2019-06-01T12:47:13.361Z,2396.00
2019-06-01T12:49:06.179Z,2360.00
2019-06-01T12:50:06.197Z,2408.00
2019-06-01T12:51:58.940Z,2448.00
2019-06-01T12:52:58.874Z,2460.00
2019-06-01T12:54:51.635Z,2460.00
2019-06-01T12:55:51.576Z,2480.00
2019-06-01T12:57:44.862Z,2472.00
2019-06-01T12:58:44.320Z,2460.00
2019-06-01T13:00:37.370Z,2500.00
2019-06-01T13:01:37.080Z,2500.00
2019-06-01T13:03:29.835Z,2372.00
2019-06-01T13:04:29.761Z,2300.00
2019-06-01T13:06:22.604Z,2248.00
2019-06-01T13:07:22.520Z,2256.00
2019-06-01T13:09:15.308Z,2248.00
2019-06-01T13:10:15.282Z,2300.00
2019-06-01T13:12:08.168Z,2444.00
2019-06-01T13:13:08.089Z,2464.00
2019-06-01T13:15:01.803Z,2444.00
2019-06-01T13:16:01.748Z,2392.00
2019-06-01T13:17:54.540Z,2256.00
2019-06-01T13:18:54.467Z,2248.00
2019-06-01T13:20:47.740Z,2260.00
2019-06-01T13:21:47.521Z,2088.00
2019-06-01T13:23:41.308Z,2200.00
2019-06-01T13:24:41.452Z,2188.00
2019-06-01T13:26:32.894Z,2332.00
2019-06-01T13:27:32.766Z,2364.00
2019-06-01T13:29:25.589Z,2324.00
2019-06-01T13:30:25.489Z,2340.00
2019-06-01T13:32:18.300Z,2224.00
2019-06-01T13:33:18.225Z,2264.00
2019-06-01T13:35:11.015Z,2228.00
2019-06-01T13:36:10.950Z,2264.00
2019-06-01T13:38:11.897Z,2312.00
2019-06-01T13:39:03.695Z,2300.00
2019-06-01T13:40:56.479Z,2204.00
2019-06-01T13:41:56.410Z,2216.00
2019-06-01T13:43:49.551Z,2244.00
2019-06-01T13:44:49.497Z,2268.00
2019-06-01T13:46:43.336Z,2208.00
2019-06-01T13:47:43.291Z,2172.00
2019-06-01T13:49:34.760Z,2120.00
2019-06-01T13:50:34.691Z,2252.00
2019-06-01T13:52:27.514Z,2416.00
2019-06-01T13:53:27.440Z,2416.00
2019-06-01T13:55:20.221Z,2312.00
2019-06-01T13:56:20.161Z,2240.00
2019-06-01T13:58:12.964Z,2136.00
2019-06-01T13:59:12.898Z,2120.00
2019-06-01T14:01:05.709Z,2088.00
2019-06-01T14:02:05.677Z,2080.00
2019-06-01T14:03:58.473Z,2072.00
2019-06-01T14:04:58.372Z,2088.00
2019-06-01T14:06:51.294Z,2072.00
2019-06-01T14:07:51.507Z,2088.00
2019-06-01T14:09:45.096Z,2108.00
2019-06-01T14:10:45.064Z,2096.00
2019-06-01T14:12:36.698Z,2040.00
2019-06-01T14:13:36.553Z,2036.00
2019-06-01T14:15:29.372Z,2012.00
2019-06-01T14:16:29.311Z,2020.00
2019-06-01T14:18:22.089Z,2028.00
2019-06-01T14:19:22.023Z,2016.00
2019-06-01T14:21:16.516Z,2008.00
2019-06-01T14:22:14.799Z,2004.00
2019-06-01T14:24:07.622Z,2016.00
2019-06-01T14:25:13.590Z,2020.00
2019-06-01T14:27:00.334Z,2040.00
2019-06-01T14:28:00.273Z,1996.00
2019-06-01T14:29:54.355Z,1992.00
2019-06-01T14:30:53.000Z,2024.00
2019-06-01T14:32:46.197Z,1924.00
2019-06-01T14:33:46.504Z,1992.00
2019-06-01T14:35:38.543Z,1968.00
2019-06-01T14:36:38.487Z,1976.00
2019-06-01T14:38:46.075Z,1988.00
2019-06-01T14:39:31.246Z,1988.00
2019-06-01T14:41:24.032Z,2016.00
2019-06-01T14:42:23.920Z,2040.00
2019-06-01T14:44:16.752Z,2060.00
2019-06-01T14:45:16.667Z,2048.00
2019-06-01T14:47:09.891Z,2004.00
2019-06-01T14:48:09.852Z,1984.00
2019-06-01T14:50:02.605Z,1944.00
2019-06-01T14:51:02.556Z,1936.00
2019-06-01T14:52:55.750Z,1932.00
2019-06-01T14:53:55.805Z,1916.00
2019-06-01T14:55:49.675Z,1928.00
2019-06-01T14:56:49.625Z,1940.00
2019-06-01T14:58:42.276Z,1944.00
2019-06-01T14:59:41.323Z,1928.00
2019-06-01T15:01:34.332Z,1912.00
2019-06-01T15:02:34.318Z,1928.00
2019-06-01T15:04:27.642Z,1920.00
2019-06-01T15:05:27.420Z,1916.00
2019-06-01T15:07:20.404Z,1892.00
2019-06-01T15:08:20.209Z,1876.00
2019-06-01T15:10:13.067Z,1868.00
2019-06-01T15:11:12.998Z,1900.00
2019-06-01T15:13:05.837Z,1896.00
2019-06-01T15:14:05.756Z,1876.00
2019-06-01T15:15:58.546Z,1872.00
2019-06-01T15:16:58.515Z,1884.00
2019-06-01T15:18:51.572Z,1908.00
2019-06-01T15:19:51.892Z,1928.00
2019-06-01T15:21:44.032Z,1976.00
2019-06-01T15:22:43.962Z,1964.00
2019-06-01T15:24:36.887Z,1948.00
2019-06-01T15:25:36.748Z,1944.00
2019-06-01T15:27:29.572Z,1920.00
2019-06-01T15:28:29.490Z,1892.00
2019-06-01T15:30:22.412Z,1868.00
2019-06-01T15:31:22.290Z,1868.00
2019-06-01T15:33:15.120Z,1852.00
2019-06-01T15:34:15.039Z,1852.00
2019-06-01T15:36:07.885Z,1832.00
2019-06-01T15:37:07.822Z,1828.00
2019-06-01T15:39:02.233Z,1752.00
2019-06-01T15:40:00.903Z,1764.00
2019-06-01T15:41:54.936Z,1756.00
2019-06-01T15:42:55.149Z,1724.00
2019-06-01T15:44:46.458Z,1648.00
2019-06-01T15:45:46.413Z,1684.00
2019-06-01T15:47:39.218Z,1672.00
2019-06-01T15:48:39.232Z,1728.00
2019-06-01T15:50:31.933Z,1772.00
2019-06-01T15:51:31.869Z,1760.00
2019-06-01T15:53:24.658Z,1756.00
2019-06-01T15:54:24.553Z,1748.00
2019-06-01T15:56:17.607Z,1752.00
2019-06-01T15:57:17.336Z,1728.00
2019-06-01T15:59:10.200Z,1768.00
2019-06-01T16:00:10.140Z,1764.00
2019-06-01T16:02:03.469Z,1748.00
2019-06-01T16:03:03.144Z,1756.00
2019-06-01T16:04:57.029Z,1748.00
2019-06-01T16:05:56.994Z,1756.00
2019-06-01T16:07:48.628Z,1748.00
2019-06-01T16:08:48.561Z,1744.00
2019-06-01T16:10:41.455Z,1724.00
2019-06-01T16:11:41.332Z,1696.00
2019-06-01T16:13:34.119Z,1676.00
2019-06-01T16:14:34.061Z,1680.00
2019-06-01T16:16:26.902Z,1660.00
2019-06-01T16:17:26.830Z,1668.00
2019-06-01T16:19:19.860Z,1636.00
2019-06-01T16:20:19.644Z,1664.00
2019-06-01T16:22:12.398Z,1660.00
2019-06-01T16:23:19.463Z,1632.00
2019-06-01T16:25:05.181Z,1664.00
2019-06-01T16:26:15.418Z,1664.00
2019-06-01T16:27:58.745Z,1664.00
2019-06-01T16:28:58.534Z,1652.00
2019-06-01T16:30:50.649Z,1628.00
2019-06-01T16:31:50.570Z,1624.00
2019-06-01T16:33:43.373Z,1604.00
2019-06-01T16:34:43.324Z,1588.00
2019-06-01T16:36:36.146Z,1572.00
2019-06-01T16:37:36.148Z,1568.00
2019-06-01T16:39:28.913Z,1556.00
2019-06-01T16:40:28.778Z,1552.00
2019-06-01T16:42:21.892Z,1516.00
2019-06-01T16:43:21.593Z,1532.00
2019-06-01T16:45:14.470Z,1508.00
2019-06-01T16:46:14.394Z,1500.00
2019-06-01T16:48:07.190Z,1484.00
2019-06-01T16:49:07.127Z,1460.00
2019-06-01T16:50:59.993Z,1460.00
2019-06-01T16:52:01.305Z,1468.00
2019-06-01T16:53:52.666Z,1472.00
2019-06-01T16:54:52.553Z,1500.00
2019-06-01T16:56:45.346Z,1488.00
2019-06-01T16:57:45.356Z,1488.00
2019-06-01T16:59:38.090Z,1484.00
2019-06-01T17:00:38.005Z,1484.00
2019-06-01T17:02:30.800Z,1496.00
2019-06-01T17:03:30.739Z,1492.00
2019-06-01T17:05:23.568Z,1476.00
2019-06-01T17:06:23.488Z,1456.00
2019-06-01T17:08:16.286Z,1444.00
2019-06-01T17:09:16.230Z,1440.00
2019-06-01T17:11:09.141Z,1420.00
2019-06-01T17:12:09.031Z,1392.00
2019-06-01T17:14:02.866Z,1380.00
2019-06-01T17:15:03.157Z,1384.00
2019-06-01T17:16:54.554Z,1400.00
2019-06-01T17:17:54.575Z,1424.00
2019-06-01T17:19:47.269Z,1444.00
2019-06-01T17:20:47.215Z,1404.00
2019-06-01T17:22:39.965Z,1316.00
2019-06-01T17:23:39.910Z,1276.00
2019-06-01T17:25:32.698Z,1260.00
2019-06-01T17:26:32.672Z,1252.00
2019-06-01T17:28:25.655Z,1236.00
2019-06-01T17:29:25.721Z,1232.00
2019-06-01T17:31:18.443Z,1240.00
2019-06-01T17:32:24.362Z,1272.00
2019-06-01T17:34:11.185Z,1296.00
2019-06-01T17:35:11.139Z,1284.00
2019-06-01T17:37:04.735Z,1236.00
2019-06-01T17:38:05.011Z,1216.00
2019-06-01T17:39:56.692Z,1132.00
2019-06-01T17:40:56.859Z,1112.00
2019-06-01T17:42:49.436Z,1100.00
2019-06-01T17:43:49.351Z,1088.00
2019-06-01T17:45:42.166Z,1072.00
2019-06-01T17:46:52.991Z,1064.00
2019-06-01T17:48:35.958Z,1044.00
2019-06-01T17:49:35.436Z,1036.00
2019-06-01T17:51:28.002Z,1020.00
2019-06-01T17:52:27.915Z,1004.00
2019-06-01T17:54:20.717Z,984.00
2019-06-01T17:55:20.681Z,972.00
2019-06-01T17:57:13.516Z,952.00
2019-06-01T17:58:13.475Z,936.00
2019-06-01T18:00:07.581Z,920.00
2019-06-01T18:01:06.461Z,908.00
2019-06-01T18:02:59.101Z,880.00
2019-06-01T18:03:59.046Z,876.00
2019-06-01T18:05:51.830Z,856.00
2019-06-01T18:06:51.808Z,848.00
2019-06-01T18:08:44.529Z,828.00
2019-06-01T18:09:44.478Z,824.00
2019-06-01T18:11:40.746Z,876.00
2019-06-01T18:12:37.202Z,940.00
2019-06-01T18:14:30.491Z,1028.00
2019-06-01T18:15:30.345Z,1028.00
2019-06-01T18:17:23.169Z,900.00
2019-06-01T18:18:23.109Z,840.00
2019-06-01T18:20:15.878Z,728.00
2019-06-01T18:21:15.839Z,692.00
2019-06-01T18:23:10.154Z,660.00
2019-06-01T18:24:09.951Z,648.00
2019-06-01T18:26:02.554Z,628.00
2019-06-01T18:27:02.375Z,616.00
2019-06-01T18:28:54.239Z,584.00
2019-06-01T18:29:54.175Z,576.00
2019-06-01T18:31:47.014Z,552.00
2019-06-01T18:32:47.050Z,540.00
2019-06-01T18:34:39.738Z,520.00
2019-06-01T18:35:39.696Z,508.00
2019-06-01T18:37:32.592Z,480.00
2019-06-01T18:38:32.493Z,468.00
2019-06-01T18:40:25.351Z,448.00
2019-06-01T18:41:25.252Z,436.00
2019-06-01T18:43:18.389Z,412.00
2019-06-01T18:44:18.187Z,404.00
2019-06-01T18:46:12.111Z,380.00
2019-06-01T18:47:11.749Z,372.00
2019-06-01T18:49:03.811Z,348.00
2019-06-01T18:50:04.078Z,336.00
2019-06-01T18:51:56.514Z,316.00
2019-06-01T18:52:56.510Z,300.00
2019-06-01T18:54:49.298Z,272.00
2019-06-01T18:55:49.249Z,268.00
2019-06-01T18:57:42.032Z,244.00
2019-06-01T18:58:41.944Z,236.00
2019-06-01T19:00:39.268Z,220.00
2019-06-01T19:01:35.065Z,208.00
2019-06-01T19:03:27.744Z,188.00
2019-06-01T19:04:27.719Z,176.00
2019-06-01T19:06:20.580Z,156.00
2019-06-01T19:07:20.574Z,148.00
2019-06-01T19:09:13.546Z,132.00
2019-06-01T19:10:14.190Z,120.00
2019-06-01T19:12:06.771Z,108.00
2019-06-01T19:13:06.035Z,96.00
2019-06-01T19:14:58.987Z,84.00
2019-06-01T19:15:58.874Z,80.00
2019-06-01T19:17:51.759Z,68.00
2019-06-01T19:18:51.674Z,64.00
2019-06-01T19:20:44.491Z,52.00
2019-06-01T19:21:44.476Z,48.00
2019-06-01T19:23:37.332Z,40.00